Fort Flagler, Washington
Current Conditions -  °F | °C
As of 5:56 AM on Monday 24 Nov 2014 (Local Time) from KNUW Reporting Station
Overcast Overcast  
Wind Chill: 43°   Ceiling: 16000
Heat Index: 48°   Visibility: 10mi
Dew Point: 41°   Wind: 13mph
Humidity: 77%   Direction: 110°ESE
Pressure: 30.3"   Gusts: NA
Location:  48.0545°N, 122.706°W
Report Text: KNUW 241356Z 11011KT 10SM FEW040 SCT060 OVC160 09/05 A3030 RMK AO2 SLP264 T00890050 $
Loading
Personal Weather Stations






























Interactive Weather Map New forecast layout! Learn more

10-Day Weather Forecast

Advertisements
Track Severe Weather on mobile